Pine Plains, New York
Current Conditions -  °F | °C
As of 6:53 PM on Sunday 23 Nov 2014 (Local Time) from KPOU Reporting Station
Clear Clear  
Wind Chill: 51°   Ceiling: Unl
Heat Index: 51°   Visibility: 10mi
Dew Point: 26°   Wind: 5mph
Humidity: 38%   Direction: 160°SSE
Pressure: 30.1"   Gusts: NA
Location:  41.98°N, 73.66°W
Report Text: KPOU 232353Z 16004KT 10SM CLR 11/M03 A3010 RMK AO2 SLP191 60000 T01061033 10144 20061 51001
Loading
Personal Weather Stations






























Interactive Weather Map New forecast layout! Learn more

10-Day Weather Forecast

Advertisements
Track Severe Weather on mobile